Hattiesburg Bobby L Chain Municipal Airport
KHBG : now visible

Airfield :











YOU CAN JOIN US ON...

 
LOGIN :

Register | Disclaimer

   EN    FR    IT 

 









Legend :    VFR   Marginal VFR   IFR   Intensive IFR   Very Intensive IFR
Visi :
Ceiling :
>= 8 km
>= 3000ft
5 to 8 km
1000 to 3000 ft
1500m to 5 km
500 to 1000 ft
800 to 1500m
200 to 500 ft
< 800m
< 200 ft
Symbols :   Thunderstorms  Fog  Heavy snow  Heavy precipitations  Wind > 20 kt






- Airport Elevation : 151 ft


KHBG - Hattiesburg Bobby L Chain Municipal

CURRENT METAR :
  • 162053Z AUTO 35005KT 10SM -RA CLR 17/00 A3008 RMK AO2 SLP185 P0000 60000 T01720000 56022

EXPIRED METARs :
  • 161953Z AUTO 36008KT 10SM -RA CLR 17/M01 A3009 RMK AO2 SLP189 P0000 T01671006
  • 161853Z AUTO 34007KT 300V020 10SM -RA CLR 16/00 A3012 RMK AO2 SLP198 P0000 T01560000

TAF KHBG
Valid from the 16 at 18:00 until the 17 at 18:00 UTC


161724Z 1618/1718 34004KT P6SM SKC



MET'MAP, your aeronautical weather chart ! - Copyright ORBIFLY December 2007 - Disclaimer

ORBIFLY MET'MAP TEAM :

Programming & Development : Alexandra Zaïnal
Concept & Development : Baudouin d'Aumeries
Co-Development & Prog : Marc-Olivier Méhu
Technical & hardware support : Manuel Goepfert

Contact : metmap@orbifly.com




SOURCES & CREDITS :

   NOAA       Earth
Advisory